Time;durP1;ratioP1;P1;durP2;ratioP2;P2;SDS_P1;SDS_P2;PMS_P1;PMS_P2;Temp;Humidity;BMP_temperature;BMP_pressure;BME280_temperature;BME280_humidity;BME280_pressure;Samples;Min_cycle;Max_cycle;Signal;HPM_P1;HPM_P2
2021/01/14 00:01:43;;;;;;;16.95;10.10;;;;;;;1.63;56.51;99125.86;1797913;79;21062;-53
2021/01/14 00:04:11;;;;;;;16.35;10.23;;;;;;;1.65;56.46;99134.47;1789020;79;21014;-52
2021/01/14 00:06:40;;;;;;;16.80;10.15;;;;;;;1.65;56.52;99140.64;1781281;79;21128;-57
2021/01/14 00:09:08;;;;;;;17.42;10.78;;;;;;;1.65;56.52;99135.28;1797385;79;21546;-58
2021/01/14 00:11:36;;;;;;;18.92;10.88;;;;;;;1.65;56.56;99131.79;1775934;79;20987;-58
2021/01/14 00:14:04;;;;;;;17.42;11.28;;;;;;;1.66;56.53;99124.03;1784331;79;21126;-58
2021/01/14 00:16:32;;;;;;;18.52;11.48;;;;;;;1.67;56.54;99126.99;1789933;79;21038;-59
2021/01/14 00:18:59;;;;;;;19.20;11.65;;;;;;;1.67;56.55;99131.83;1802962;79;21430;-58
2021/01/14 00:21:27;;;;;;;17.48;11.12;;;;;;;1.70;56.55;99133.23;1803578;79;21359;-66
2021/01/14 00:23:55;;;;;;;20.60;12.60;;;;;;;1.67;56.58;99122.44;1797723;79;21213;-57
2021/01/14 00:26:23;;;;;;;19.52;12.20;;;;;;;1.66;56.62;99126.18;1795614;79;21161;-67
2021/01/14 00:28:52;;;;;;;17.45;11.40;;;;;;;1.65;56.58;99125.89;1798515;79;21905;-59
2021/01/14 00:31:20;;;;;;;20.95;12.15;;;;;;;1.63;56.79;99126.67;1745335;79;21047;-58
2021/01/14 00:33:48;;;;;;;20.30;13.38;;;;;;;1.63;56.77;99123.99;1773659;79;21526;-58
2021/01/14 00:36:30;;;;;;;21.23;12.88;;;;;;;1.61;56.83;99133.30;1738009;78;21604;-58
2021/01/14 00:39:02;;;;;;;19.05;12.85;;;;;;;1.58;56.88;99131.92;1789042;79;21619;-57
2021/01/14 00:41:29;;;;;;;20.52;12.85;;;;;;;1.57;56.87;99138.31;1798854;79;21449;-57
2021/01/14 00:43:57;;;;;;;21.27;13.85;;;;;;;1.58;56.98;99139.97;1749777;79;21133;-57
2021/01/14 00:46:25;;;;;;;25.27;13.80;;;;;;;1.60;57.07;99129.81;1780202;79;22226;-58
2021/01/14 00:48:53;;;;;;;20.10;12.45;;;;;;;1.63;57.09;99145.97;1780230;79;21193;-53
2021/01/14 00:51:21;;;;;;;19.77;13.20;;;;;;;1.65;57.09;99152.70;1788681;79;21217;-56
2021/01/14 00:53:51;;;;;;;20.23;12.63;;;;;;;1.65;57.09;99150.03;1792811;79;21147;-56
2021/01/14 00:56:19;;;;;;;19.45;13.65;;;;;;;1.64;57.12;99147.06;1785531;79;21133;-55
2021/01/14 00:58:48;;;;;;;20.37;13.45;;;;;;;1.62;57.20;99140.30;1767505;79;21199;-55
2021/01/14 01:01:16;;;;;;;20.55;13.98;;;;;;;1.54;57.40;99136.94;1781596;79;21088;-54
2021/01/14 01:03:44;;;;;;;18.48;12.50;;;;;;;1.54;57.59;99130.23;1794984;79;21136;-55
2021/01/14 01:06:12;;;;;;;19.70;13.55;;;;;;;1.55;57.64;99125.16;1758580;79;21057;-55
2021/01/14 01:08:40;;;;;;;20.55;12.73;;;;;;;1.59;57.74;99112.63;1794028;79;21085;-56
2021/01/14 01:11:08;;;;;;;20.75;13.53;;;;;;;1.60;57.78;99111.58;1792591;79;21217;-55
2021/01/14 01:13:36;;;;;;;23.15;14.55;;;;;;;1.60;57.76;99116.41;1789074;79;21225;-51
2021/01/14 01:16:06;;;;;;;25.00;15.08;;;;;;;1.60;57.82;99125.79;1800824;79;21559;-53
2021/01/14 01:18:33;;;;;;;20.85;13.55;;;;;;;1.59;57.90;99124.70;1786614;79;21133;-52
2021/01/14 01:21:06;;;;;;;24.12;13.88;;;;;;;1.62;57.90;99129.04;1749377;79;21065;-55
2021/01/14 01:26:04;;;;;;;24.20;14.57;;;;;;;1.66;57.80;99129.39;1820173;77;22248;-54
2021/01/14 01:28:32;;;;;;;21.48;13.35;;;;;;;1.62;57.79;99127.70;1756459;81;21001;-56
2021/01/14 01:31:00;;;;;;;20.05;13.25;;;;;;;1.65;57.81;99129.11;1766240;81;22035;-50
2021/01/14 01:33:28;;;;;;;21.20;13.60;;;;;;;1.70;57.75;99131.89;1756400;81;21151;-51
2021/01/14 01:35:56;;;;;;;24.20;14.83;;;;;;;1.72;57.70;99135.14;1766124;81;21083;-55
2021/01/14 01:38:23;;;;;;;20.10;13.22;;;;;;;1.73;57.66;99131.43;1733535;81;21079;-52
2021/01/14 01:41:02;;;;;;;21.25;14.13;;;;;;;1.72;57.53;99131.93;1735818;82;21547;-54
2021/01/14 01:43:31;;;;;;;21.05;13.60;;;;;;;1.75;57.50;99133.34;1735793;82;22127;-51
2021/01/14 01:46:00;;;;;;;21.20;13.80;;;;;;;1.75;57.48;99130.66;1735792;82;21560;-52
2021/01/14 01:48:30;;;;;;;20.52;13.90;;;;;;;1.74;57.32;99133.05;1735650;82;21015;-56
2021/01/14 01:51:01;;;;;;;21.40;13.95;;;;;;;1.74;57.38;99134.40;1735752;82;21032;-52
2021/01/14 01:53:30;;;;;;;20.17;12.80;;;;;;;1.74;57.36;99129.84;1735776;81;20999;-53
2021/01/14 01:55:58;;;;;;;21.25;15.08;;;;;;;1.74;57.32;99135.73;1735730;82;21371;-53
2021/01/14 01:58:28;;;;;;;20.48;14.13;;;;;;;1.75;57.35;99136.02;1735634;82;21031;-53
2021/01/14 02:00:56;;;;;;;20.85;13.88;;;;;;;1.76;57.35;99138.98;1735761;81;21594;-51
2021/01/14 02:03:24;;;;;;;21.10;14.03;;;;;;;1.77;57.35;99145.47;1735781;82;21053;-51
2021/01/14 02:05:52;;;;;;;22.85;13.93;;;;;;;1.76;57.32;99147.03;1735766;82;20932;-51
2021/01/14 02:08:53;;;;;;;20.45;13.32;;;;;;;1.74;57.33;99145.13;1735734;82;21388;-52
2021/01/14 02:11:36;;;;;;;21.70;13.68;;;;;;;1.74;57.33;99143.25;1735649;82;21091;-51
2021/01/14 02:14:26;;;;;;;21.87;13.13;;;;;;;1.74;57.41;99139.76;1735901;81;21494;-54
2021/01/14 02:16:54;;;;;;;21.25;13.72;;;;;;;1.76;57.37;99142.48;1735730;82;20956;-53
2021/01/14 02:19:38;;;;;;;20.90;13.40;;;;;;;1.78;57.23;99143.08;1735926;82;21467;-55
2021/01/14 02:22:23;;;;;;;20.95;12.90;;;;;;;1.79;57.18;99137.19;1735515;81;21200;-53
2021/01/14 02:25:23;;;;;;;21.57;14.05;;;;;;;1.79;57.32;99143.36;1731150;82;21516;-52
2021/01/14 02:27:51;;;;;;;22.37;13.53;;;;;;;1.80;57.28;99142.83;1726642;83;20950;-54
2021/01/14 02:30:20;;;;;;;22.20;13.98;;;;;;;1.78;57.26;99139.58;1726711;82;21864;-56
2021/01/14 02:32:48;;;;;;;22.13;14.35;;;;;;;1.79;57.20;99135.84;1726503;82;21053;-50
2021/01/14 02:35:15;;;;;;;24.07;14.60;;;;;;;1.80;57.22;99129.42;1726581;83;21220;-51
2021/01/14 02:37:44;;;;;;;21.17;13.75;;;;;;;1.80;57.21;99128.89;1726076;83;20926;-51
2021/01/14 02:40:12;;;;;;;21.82;13.83;;;;;;;1.80;57.19;99130.77;1725936;83;21097;-53
2021/01/14 02:42:40;;;;;;;20.95;14.03;;;;;;;1.82;57.19;99124.63;1725919;83;20919;-55
2021/01/14 02:45:11;;;;;;;21.87;14.13;;;;;;;1.83;57.24;99120.09;1703446;83;20959;-53
2021/01/14 02:47:39;;;;;;;19.60;14.20;;;;;;;1.81;57.33;99113.61;1726120;83;21213;-54
2021/01/14 02:50:09;;;;;;;21.42;14.03;;;;;;;1.82;57.33;99117.92;1725904;83;20979;-54
2021/01/14 02:52:36;;;;;;;19.77;14.15;;;;;;;1.84;57.36;99113.67;1726121;83;21038;-53
2021/01/14 02:55:05;;;;;;;23.70;15.53;;;;;;;1.85;57.37;99113.95;1726018;83;21798;-54
2021/01/14 02:57:33;;;;;;;24.95;15.60;;;;;;;1.85;57.43;99119.33;1726031;82;20994;-51
2021/01/14 03:00:03;;;;;;;21.90;14.58;;;;;;;1.84;57.45;99115.83;1725987;83;21124;-52
2021/01/14 03:02:31;;;;;;;24.15;14.65;;;;;;;1.84;57.48;99125.22;1725782;83;21080;-52
2021/01/14 03:04:59;;;;;;;21.00;13.83;;;;;;;1.85;57.48;99122.00;1725847;83;20986;-51
2021/01/14 03:07:27;;;;;;;21.97;14.50;;;;;;;1.85;57.44;99131.39;1726090;83;20998;-51
2021/01/14 03:09:55;;;;;;;23.20;15.05;;;;;;;1.85;57.45;99124.16;1726000;83;21034;-54
2021/01/14 03:12:23;;;;;;;25.95;15.50;;;;;;;1.85;57.45;99120.13;1726083;83;23366;-53
2021/01/14 03:14:51;;;;;;;22.15;14.90;;;;;;;1.87;57.38;99123.91;1725850;82;21604;-52
2021/01/14 03:17:19;;;;;;;23.02;16.05;;;;;;;1.87;57.35;99124.72;1750242;82;21012;-55
2021/01/14 03:19:49;;;;;;;21.82;14.23;;;;;;;1.88;57.40;99125.56;1720082;83;21016;-52
2021/01/14 03:22:17;;;;;;;21.90;14.53;;;;;;;1.89;57.44;99121.30;1751539;82;20985;-55
2021/01/14 03:24:44;;;;;;;22.85;14.98;;;;;;;1.89;57.48;99121.30;1721387;82;22728;-51
2021/01/14 03:27:12;;;;;;;29.25;16.62;;;;;;;1.93;57.44;99121.11;1749540;82;20957;-52
2021/01/14 03:29:43;;;;;;;27.60;17.37;;;;;;;1.96;57.46;99123.83;1729477;81;20910;-53
2021/01/14 03:32:10;;;;;;;26.45;17.30;;;;;;;1.97;57.38;99130.81;1720018;83;20969;-55
2021/01/14 03:34:38;;;;;;;28.42;17.77;;;;;;;2.00;57.34;99138.40;1751474;82;20981;-53
2021/01/14 03:37:06;;;;;;;30.35;19.10;;;;;;;2.03;57.25;99130.70;1721677;83;21205;-54
2021/01/14 03:39:34;;;;;;;30.70;19.40;;;;;;;2.07;57.18;99133.16;1749614;81;20938;-54
2021/01/14 03:42:02;;;;;;;34.08;21.12;;;;;;;2.06;57.16;99134.22;1729351;82;20945;-53
2021/01/14 03:44:30;;;;;;;29.60;19.37;;;;;;;2.06;57.25;99137.44;1729287;83;21020;-55
2021/01/14 03:46:58;;;;;;;28.62;19.05;;;;;;;2.01;57.51;99132.78;1720030;83;21012;-54
2021/01/14 03:49:26;;;;;;;29.65;18.32;;;;;;;2.02;57.71;99134.94;1750787;82;21006;-56
2021/01/14 03:51:53;;;;;;;29.65;18.80;;;;;;;2.01;57.88;99140.02;1720482;83;20957;-54
2021/01/14 03:54:22;;;;;;;29.37;18.50;;;;;;;1.98;58.10;99136.49;1749595;82;20941;-54
2021/01/14 03:56:50;;;;;;;31.75;18.25;;;;;;;1.96;58.17;99134.56;1702668;83;21142;-55
2021/01/14 03:59:18;;;;;;;29.15;18.85;;;;;;;1.94;58.29;99129.97;1719904;83;21574;-56
2021/01/14 04:01:47;;;;;;;32.70;21.60;;;;;;;1.94;58.47;99134.80;1725684;82;21181;-56
2021/01/14 04:04:14;;;;;;;29.82;19.85;;;;;;;1.93;58.56;99126.48;1721456;83;20945;-58
2021/01/14 04:06:42;;;;;;;36.83;21.57;;;;;;;1.97;58.63;99131.63;1749515;82;21472;-55
2021/01/14 04:09:10;;;;;;;35.90;22.10;;;;;;;1.99;58.67;99131.41;1729319;83;21000;-56
2021/01/14 04:11:37;;;;;;;34.35;21.10;;;;;;;2.01;58.67;99131.97;1719774;83;20985;-55
2021/01/14 04:14:06;;;;;;;33.05;20.75;;;;;;;2.04;58.60;99126.95;1751526;82;21294;-56
2021/01/14 04:16:34;;;;;;;32.13;21.10;;;;;;;2.04;58.53;99122.94;1721350;82;21024;-55
2021/01/14 04:19:03;;;;;;;34.35;20.45;;;;;;;2.08;58.50;99120.59;1749667;81;20969;-55
2021/01/14 04:21:30;;;;;;;31.42;19.40;;;;;;;2.08;58.51;99120.59;1728449;83;21113;-55
2021/01/14 04:23:58;;;;;;;29.35;18.30;;;;;;;2.12;58.46;99118.22;1719920;83;21060;-55
2021/01/14 04:26:26;;;;;;;32.58;20.82;;;;;;;2.09;58.39;99123.55;1751163;81;21393;-53
2021/01/14 04:28:54;;;;;;;27.82;18.62;;;;;;;2.08;58.35;99132.14;1696195;83;20973;-54
2021/01/14 04:31:22;;;;;;;29.20;20.43;;;;;;;2.08;58.38;99128.11;1749650;82;20898;-54
2021/01/14 04:33:52;;;;;;;32.00;19.65;;;;;;;2.11;58.37;99129.48;1727379;83;20953;-57
2021/01/14 04:36:20;;;;;;;30.20;19.57;;;;;;;2.14;58.40;99126.87;1719947;83;21614;-57
2021/01/14 04:38:48;;;;;;;32.15;19.57;;;;;;;2.18;58.37;99129.33;1751543;81;22370;-55
2021/01/14 04:41:18;;;;;;;33.33;21.33;;;;;;;2.20;58.30;99128.05;1721202;83;21045;-57
2021/01/14 04:43:46;;;;;;;31.07;20.25;;;;;;;2.23;58.17;99124.91;1749670;82;20933;-56
2021/01/14 04:46:14;;;;;;;34.03;21.77;;;;;;;2.21;58.10;99117.60;1729087;81;20932;-62
2021/01/14 04:48:47;;;;;;;34.65;21.30;;;;;;;2.22;58.09;99125.13;1719644;83;21494;-57
2021/01/14 04:51:18;;;;;;;33.28;20.45;;;;;;;2.24;58.08;99125.19;1751360;82;21344;-56
2021/01/14 04:53:48;;;;;;;35.90;20.60;;;;;;;2.23;58.00;99124.91;1721578;82;21178;-57
2021/01/14 04:56:17;;;;;;;34.38;21.65;;;;;;;2.24;57.98;99126.52;1749474;81;21579;-54
2021/01/14 04:58:47;;;;;;;36.95;22.17;;;;;;;2.25;57.98;99125.47;1702939;83;21075;-57
2021/01/14 05:01:23;;;;;;;37.03;22.10;;;;;;;2.30;57.91;99129.58;1719752;83;21088;-56
2021/01/14 05:03:53;;;;;;;28.60;19.37;;;;;;;2.34;57.79;99119.19;1751719;82;22280;-56
2021/01/14 05:06:23;;;;;;;29.50;19.35;;;;;;;2.31;57.76;99119.13;1721324;83;20974;-54
2021/01/14 05:08:56;;;;;;;25.15;18.15;;;;;;;2.32;57.53;99112.70;1749500;81;21035;-51
2021/01/14 05:11:25;;;;;;;26.95;17.85;;;;;;;2.32;57.35;99114.57;1728183;83;20968;-52
2021/01/14 05:13:53;;;;;;;30.17;19.02;;;;;;;2.33;57.14;99121.56;1719988;83;20929;-52
2021/01/14 05:16:22;;;;;;;29.42;17.70;;;;;;;2.33;57.04;99113.52;1751227;81;21162;-53
2021/01/14 05:18:50;;;;;;;25.20;17.37;;;;;;;2.33;56.96;99115.70;1721397;83;21151;-52
2021/01/14 05:21:20;;;;;;;27.60;18.77;;;;;;;2.33;56.76;99123.75;1725808;82;21489;-54
2021/01/14 05:23:48;;;;;;;33.90;19.45;;;;;;;2.34;56.78;99121.88;1702975;83;20999;-52
2021/01/14 05:26:29;;;;;;;26.70;17.48;;;;;;;2.33;56.75;99128.27;1719429;82;21079;-51
2021/01/14 05:28:58;;;;;;;26.62;17.67;;;;;;;2.28;56.99;99129.52;1750876;82;21373;-57
2021/01/14 05:31:26;;;;;;;29.37;18.10;;;;;;;2.31;56.99;99129.86;1674373;83;21108;-56
2021/01/14 05:34:00;;;;;;;30.55;18.40;;;;;;;2.29;57.07;99134.67;1749030;82;21555;-53
2021/01/14 05:36:31;;;;;;;29.77;19.40;;;;;;;2.26;57.34;99135.67;1750931;81;21547;-58
2021/01/14 05:38:59;;;;;;;26.33;17.65;;;;;;;2.24;57.51;99137.80;1673826;83;21147;-53
2021/01/14 05:41:30;;;;;;;25.37;18.40;;;;;;;2.16;57.66;99132.27;1749530;81;21648;-55
2021/01/14 05:44:00;;;;;;;29.85;17.57;;;;;;;2.11;57.93;99128.14;1729171;81;21024;-54
2021/01/14 05:46:31;;;;;;;28.75;17.15;;;;;;;2.08;58.26;99124.09;1720089;83;21147;-59
2021/01/14 05:49:01;;;;;;;26.40;16.67;;;;;;;2.05;58.52;99129.92;1750989;82;21160;-49
2021/01/14 05:51:31;;;;;;;27.95;19.25;;;;;;;2.06;58.54;99134.22;1721288;83;21111;-50
2021/01/14 05:54:09;;;;;;;29.05;17.87;;;;;;;2.07;58.56;99134.51;1749632;82;21202;-50
2021/01/14 05:56:46;;;;;;;25.77;17.80;;;;;;;2.07;58.64;99135.04;1729015;83;21127;-49
2021/01/14 05:59:17;;;;;;;29.40;19.40;;;;;;;2.06;58.67;99134.76;1719769;83;21495;-49
2021/01/14 06:01:59;;;;;;;33.15;19.57;;;;;;;2.05;58.78;99128.58;1751309;82;21175;-48
2021/01/14 06:04:30;;;;;;;29.70;19.45;;;;;;;2.07;58.84;99137.72;1720448;82;21135;-49
2021/01/14 06:07:04;;;;;;;33.73;20.77;;;;;;;2.01;58.95;99128.77;1667668;84;22042;-53
2021/01/14 06:09:48;;;;;;;31.62;19.92;;;;;;;2.00;59.16;99129.02;1695316;83;21072;-53
2021/01/14 06:12:16;;;;;;;35.05;20.70;;;;;;;1.99;59.27;99130.88;1720067;83;21658;-50
2021/01/14 06:14:45;;;;;;;35.58;22.65;;;;;;;1.94;59.34;99141.52;1719969;83;21510;-50
2021/01/14 06:17:14;;;;;;;36.10;21.93;;;;;;;1.88;59.52;99131.74;1719887;83;20993;-50
2021/01/14 06:19:42;;;;;;;37.08;22.25;;;;;;;1.87;59.66;99131.42;1720029;83;23463;-49
2021/01/14 06:22:17;;;;;;;37.35;21.65;;;;;;;1.84;59.80;99132.45;1719915;83;21131;-50
2021/01/14 06:24:44;;;;;;;38.08;21.93;;;;;;;1.78;59.86;99140.39;1733654;82;21503;-49
2021/01/14 06:27:14;;;;;;;35.92;22.52;;;;;;;1.71;60.12;99148.27;1702643;82;21068;-50
2021/01/14 06:29:43;;;;;;;42.88;25.08;;;;;;;1.71;60.29;99141.03;1760029;80;21454;-51
2021/01/14 06:32:17;;;;;;;46.05;24.47;;;;;;;1.72;60.40;99143.19;1758012;80;21404;-51
2021/01/14 06:34:49;;;;;;;40.95;24.05;;;;;;;1.73;60.49;99138.14;1754606;80;21011;-52
2021/01/14 06:37:26;;;;;;;39.92;22.50;;;;;;;1.74;60.60;99131.72;1708849;82;21146;-54
2021/01/14 06:39:58;;;;;;;44.38;23.75;;;;;;;1.75;60.54;99138.70;1675542;83;21579;-59
2021/01/14 06:42:31;;;;;;;41.65;21.82;;;;;;;1.79;60.68;99134.50;1710028;83;21614;-59
2021/01/14 06:45:09;;;;;;;44.42;24.12;;;;;;;1.85;60.63;99131.39;1675470;84;21254;-60
2021/01/14 06:47:42;;;;;;;45.78;24.45;;;;;;;1.87;60.71;99136.80;1708761;83;21092;-61
2021/01/14 06:50:21;;;;;;;45.90;25.23;;;;;;;1.86;60.84;99137.04;1710510;83;21267;-58
2021/01/14 06:53:15;;;;;;;41.50;22.57;;;;;;;1.93;60.95;99122.98;1863748;75;22755;-60
2021/01/14 06:55:45;;;;;;;44.03;23.90;;;;;;;1.87;60.86;99134.11;1797645;77;20921;-57
2021/01/14 06:58:14;;;;;;;43.02;23.02;;;;;;;1.82;61.05;99140.71;1824879;77;21262;-58
2021/01/14 07:00:45;;;;;;;43.98;24.12;;;;;;;1.77;61.24;99149.50;1822793;77;21044;-56
2021/01/14 07:03:20;;;;;;;39.92;21.65;;;;;;;1.74;61.39;99153.17;1822697;77;22111;-59
2021/01/14 07:05:59;;;;;;;32.75;17.05;;;;;;;1.75;61.43;99154.80;1827089;77;21464;-57
2021/01/14 07:08:41;;;;;;;36.95;21.37;;;;;;;1.66;61.52;99152.99;1819121;77;21475;-58
2021/01/14 07:11:17;;;;;;;37.75;22.32;;;;;;;1.58;61.72;99150.69;1823119;77;22134;-57
2021/01/14 07:13:48;;;;;;;;;;;;;;;1.54;61.89;99147.66;1825277;77;20997;-57
2021/01/14 07:16:21;;;;;;;43.58;22.02;;;;;;;1.53;62.04;99153.27;1818584;78;20123;-57
2021/01/14 07:18:50;;;;;;;44.08;24.52;;;;;;;1.48;62.23;99155.83;1825562;77;20985;-55
2021/01/14 07:21:36;;;;;;;44.90;22.37;;;;;;;1.48;62.22;99157.98;1817200;77;21563;-56
2021/01/14 07:24:18;;;;;;;42.15;23.55;;;;;;;1.47;62.23;99157.70;1824563;77;22841;-58
2021/01/14 07:26:49;;;;;;;45.08;22.93;;;;;;;1.44;62.40;99165.39;1822150;77;20929;-57
2021/01/14 07:29:17;;;;;;;43.15;24.70;;;;;;;1.45;62.41;99164.33;1818475;77;20910;-56
2021/01/14 07:31:59;;;;;;;46.35;25.02;;;;;;;1.43;62.55;99161.90;1820439;78;20918;-57
2021/01/14 07:34:44;;;;;;;49.33;24.23;;;;;;;1.44;62.67;99164.86;1821422;78;21162;-57
2021/01/14 07:37:17;;;;;;;51.77;25.55;;;;;;;1.49;62.78;99170.86;1822256;78;21235;-58
2021/01/14 07:39:57;;;;;;;48.55;25.05;;;;;;;1.56;62.89;99163.50;1798996;78;21503;-56
2021/01/14 07:42:34;;;;;;;49.67;27.37;;;;;;;1.63;62.78;99164.73;1787213;80;20938;-57
2021/01/14 07:45:07;;;;;;;48.00;25.55;;;;;;;1.67;62.75;99168.55;1787581;80;21096;-56
2021/01/14 07:47:37;;;;;;;46.77;23.90;;;;;;;1.70;62.68;99164.07;1786925;79;21615;-59
2021/01/14 07:50:27;;;;;;;50.88;25.82;;;;;;;1.69;62.70;99169.15;1787284;80;21387;-59
2021/01/14 07:52:57;;;;;;;52.45;26.15;;;;;;;1.66;62.84;99169.08;1786872;80;21107;-60
2021/01/14 07:55:31;;;;;;;42.33;22.52;;;;;;;1.72;63.01;99170.81;1787479;80;21590;-58
2021/01/14 07:58:22;;;;;;;49.45;26.52;;;;;;;1.76;62.93;99171.16;1794642;79;21114;-63
2021/01/14 08:01:07;;;;;;;47.17;23.77;;;;;;;1.75;63.10;99173.03;1796838;79;21103;-60
2021/01/14 08:03:37;;;;;;;38.38;17.80;;;;;;;1.79;63.27;99176.88;1793619;79;21374;-61
2021/01/14 08:06:44;;;;;;;50.63;25.62;;;;;;;1.72;63.37;99174.84;1796450;79;21139;-58
2021/01/14 08:09:11;;;;;;;51.30;24.95;;;;;;;1.71;63.63;99177.23;1796683;79;21156;-57
2021/01/14 08:11:51;;;;;;;50.80;25.97;;;;;;;1.75;63.75;99173.03;1794194;79;21033;-57
2021/01/14 08:14:21;;;;;;;50.10;25.43;;;;;;;1.79;63.85;99180.91;1792515;79;21095;-58
2021/01/14 08:16:52;;;;;;;51.18;26.17;;;;;;;1.84;63.87;99176.17;1794507;79;21270;-61
2021/01/14 08:19:37;;;;;;;53.05;25.43;;;;;;;1.88;63.91;99175.19;1798598;79;21124;-62
2021/01/14 08:22:10;;;;;;;58.48;25.88;;;;;;;1.88;63.96;99177.34;1790095;79;21133;-63
2021/01/14 08:24:59;;;;;;;50.25;25.85;;;;;;;1.96;64.03;99182.84;1802690;79;21653;-59
2021/01/14 08:27:37;;;;;;;47.50;25.52;;;;;;;2.00;64.01;99175.42;1794927;79;21587;-60
2021/01/14 08:30:14;;;;;;;51.68;26.50;;;;;;;2.02;63.91;99174.66;1798690;78;21362;-60
2021/01/14 08:32:47;;;;;;;55.20;26.33;;;;;;;2.01;63.87;99177.58;1794632;79;21642;-59
2021/01/14 08:35:24;;;;;;;52.80;27.60;;;;;;;2.04;63.95;99179.80;1794841;79;21096;-57
2021/01/14 08:38:10;;;;;;;53.90;27.25;;;;;;;2.06;63.96;99178.50;1788207;79;21156;-60
2021/01/14 08:40:40;;;;;;;54.93;28.27;;;;;;;2.04;64.07;99173.91;1799847;79;21135;-61
2021/01/14 08:43:14;;;;;;;55.03;26.12;;;;;;;2.06;64.15;99177.69;1799418;79;21190;-63
2021/01/14 08:45:55;;;;;;;55.70;28.77;;;;;;;2.04;64.26;99181.95;1793134;79;21058;-63
2021/01/14 08:48:29;;;;;;;59.13;28.62;;;;;;;2.06;64.48;99177.16;1795504;79;20927;-62
2021/01/14 08:51:02;;;;;;;57.10;27.95;;;;;;;2.10;64.56;99169.45;1792661;78;21175;-63
2021/01/14 08:53:34;;;;;;;52.33;26.65;;;;;;;2.17;64.58;99171.98;1770560;79;21213;-63
2021/01/14 08:56:11;;;;;;;59.60;28.75;;;;;;;2.22;64.43;99173.42;1769117;80;21262;-60
2021/01/14 08:58:47;;;;;;;52.75;27.80;;;;;;;2.18;64.72;99164.22;1705812;83;21076;-60
2021/01/14 09:01:23;;;;;;;53.78;29.07;;;;;;;2.18;64.74;99164.22;1705282;83;21173;-62
2021/01/14 09:03:53;;;;;;;40.48;20.75;;;;;;;2.26;64.65;99160.64;1714416;83;21142;-63
2021/01/14 09:06:39;;;;;;;44.23;25.80;;;;;;;2.31;64.58;99160.73;1724149;83;21169;-61
2021/01/14 09:09:10;;;;;;;49.45;26.90;;;;;;;2.41;64.41;99159.30;1725873;83;21409;-62
2021/01/14 09:11:39;;;;;;;46.40;25.10;;;;;;;2.44;64.46;99148.90;1725685;83;21142;-61
2021/01/14 09:14:18;;;;;;;46.95;25.40;;;;;;;2.54;64.25;99151.77;1725899;83;21141;-58
2021/01/14 09:16:49;;;;;;;45.58;26.10;;;;;;;2.61;63.97;99154.29;1725705;83;21035;-57
2021/01/14 09:19:19;;;;;;;40.85;23.02;;;;;;;2.62;63.83;99157.78;1698944;83;21528;-61
2021/01/14 09:21:48;;;;;;;47.03;24.65;;;;;;;2.64;63.67;99155.69;1725741;81;21384;-59
2021/01/14 09:24:18;;;;;;;37.95;22.93;;;;;;;2.66;63.65;99154.91;1728678;83;21196;-60
2021/01/14 09:26:50;;;;;;;41.35;23.32;;;;;;;2.67;63.78;99151.16;1722194;83;21187;-60
2021/01/14 09:29:20;;;;;;;36.08;20.75;;;;;;;2.73;63.71;99156.37;1716647;83;21030;-59
2021/01/14 09:31:48;;;;;;;38.40;20.88;;;;;;;2.77;63.55;99159.39;1720748;83;21185;-57
2021/01/14 09:34:15;;;;;;;35.38;21.55;;;;;;;2.75;63.40;99156.14;1723974;83;21193;-58
2021/01/14 09:36:45;;;;;;;36.70;21.45;;;;;;;2.72;63.39;99156.09;1719084;83;21184;-58
2021/01/14 09:39:16;;;;;;;31.45;19.75;;;;;;;2.74;63.38;99163.39;1701093;83;21672;-60
2021/01/14 09:41:44;;;;;;;29.20;18.67;;;;;;;2.76;63.35;99154.55;1693920;84;21257;-61
2021/01/14 09:44:14;;;;;;;27.62;17.17;;;;;;;2.78;63.27;99152.95;1703972;83;21608;-60
2021/01/14 09:46:45;;;;;;;30.02;19.17;;;;;;;2.78;63.23;99148.39;1721032;83;22138;-61
2021/01/14 09:49:15;;;;;;;28.40;17.07;;;;;;;2.81;63.21;99155.98;1721938;83;21146;-61
2021/01/14 09:51:45;;;;;;;27.80;16.87;;;;;;;2.86;63.18;99153.38;1717273;83;21242;-68
2021/01/14 09:54:13;;;;;;;27.17;16.62;;;;;;;2.87;63.08;99155.53;1792920;79;21617;-60
2021/01/14 09:56:45;;;;;;;30.05;17.62;;;;;;;2.82;63.02;99146.86;1786397;79;21184;-63
2021/01/14 09:59:24;;;;;;;27.95;18.00;;;;;;;2.85;63.05;99147.72;1776012;79;21442;-59
2021/01/14 10:02:00;;;;;;;24.77;16.70;;;;;;;2.88;63.08;99146.94;1806564;79;21127;-60
2021/01/14 10:04:27;;;;;;;25.55;15.60;;;;;;;2.89;63.09;99144.03;1806699;79;21010;-61
2021/01/14 10:07:06;;;;;;;28.12;16.77;;;;;;;2.91;63.05;99146.46;1780515;80;21112;-59
2021/01/14 10:09:33;;;;;;;24.45;16.15;;;;;;;2.93;62.88;99143.80;1790643;79;21182;-58
2021/01/14 10:12:04;;;;;;;27.95;16.35;;;;;;;2.94;62.85;99148.14;1789648;79;23538;-60
2021/01/14 10:14:32;;;;;;;29.67;16.95;;;;;;;2.95;62.82;99141.70;1795132;79;21147;-63
2021/01/14 10:17:12;;;;;;;26.57;17.15;;;;;;;2.96;62.71;99145.20;1795045;79;21090;-61
2021/01/14 10:19:52;;;;;;;26.33;16.17;;;;;;;2.95;62.70;99140.36;1813430;79;21040;-58
2021/01/14 10:22:21;;;;;;;23.98;14.90;;;;;;;2.96;62.60;99146.02;1787569;79;21171;-57
2021/01/14 10:24:49;;;;;;;23.32;15.03;;;;;;;2.98;62.52;99141.20;1813394;79;21426;-57
2021/01/14 10:27:19;;;;;;;20.23;12.45;;;;;;;3.01;62.41;99139.37;1813328;79;21076;-61
2021/01/14 10:29:47;;;;;;;15.90;11.08;;;;;;;3.02;62.23;99135.62;1813405;79;21365;-61
2021/01/14 10:32:17;;;;;;;18.05;11.88;;;;;;;3.02;61.85;99130.78;1813234;79;21012;-66
2021/01/14 10:34:50;;;;;;;19.40;12.30;;;;;;;3.02;61.88;99132.94;1813184;79;21135;-55
2021/01/14 10:37:25;;;;;;;15.55;10.80;;;;;;;3.03;61.83;99126.50;1813109;79;21535;-60
2021/01/14 10:40:02;;;;;;;20.30;11.70;;;;;;;3.03;61.72;99129.18;1812920;78;21131;-61
2021/01/14 10:42:37;;;;;;;17.85;11.73;;;;;;;3.02;61.85;99130.25;1812217;79;21119;-57
2021/01/14 10:45:11;;;;;;;17.40;11.70;;;;;;;3.02;61.82;99126.22;1781284;80;21559;-60
2021/01/14 10:47:41;;;;;;;17.27;10.35;;;;;;;3.02;61.74;99123.53;1781442;80;21191;-60
2021/01/14 10:50:27;;;;;;;17.75;11.48;;;;;;;3.02;61.68;99118.16;1781142;80;21237;-63
2021/01/14 10:53:03;;;;;;;17.17;10.60;;;;;;;3.04;61.55;99119.24;1780670;79;21571;-63
2021/01/14 10:55:32;;;;;;;14.70;9.63;;;;;;;3.04;61.50;99116.56;1781740;80;20990;-64
2021/01/14 10:58:06;;;;;;;12.37;9.28;;;;;;;3.04;61.48;99116.56;1781064;80;21026;-60
2021/01/14 11:00:41;;;;;;;12.60;8.75;;;;;;;3.05;61.28;99118.21;1781141;80;21145;-64
2021/01/14 11:03:14;;;;;;;9.33;6.97;;;;;;;3.01;61.37;99111.69;1781399;80;21394;-64
2021/01/14 11:05:54;;;;;;;14.40;8.90;;;;;;;2.97;61.40;99113.23;1741917;82;21745;-63
2021/01/14 11:08:30;;;;;;;14.78;10.00;;;;;;;2.96;61.57;99118.33;1741241;82;21052;-60
2021/01/14 11:11:10;;;;;;;12.68;8.40;;;;;;;2.96;61.55;99115.65;1718072;82;21599;-66
2021/01/14 11:13:46;;;;;;;12.15;9.05;;;;;;;2.93;61.58;99111.56;1813623;79;21066;-62
2021/01/14 11:16:16;;;;;;;12.65;8.65;;;;;;;2.91;61.68;99113.69;1813538;79;21186;-57
2021/01/14 11:18:50;;;;;;;14.65;10.35;;;;;;;2.88;61.75;99109.33;1813446;79;21155;-58
2021/01/14 11:21:21;;;;;;;13.88;8.98;;;;;;;2.87;61.88;99111.20;1813306;79;21107;-56
2021/01/14 11:23:49;;;;;;;15.00;9.85;;;;;;;2.88;61.94;99112.83;1813473;78;21139;-57
2021/01/14 11:26:19;;;;;;;13.62;9.73;;;;;;;2.90;61.96;99109.91;1813423;79;21119;-56
2021/01/14 11:28:47;;;;;;;13.38;9.63;;;;;;;2.88;61.95;99113.36;1813242;79;21939;-54
2021/01/14 11:31:17;;;;;;;12.70;9.50;;;;;;;2.84;61.93;99105.00;1813545;79;21174;-55
2021/01/14 11:33:45;;;;;;;14.00;9.90;;;;;;;2.82;62.04;99106.56;1813479;79;21464;-55
2021/01/14 11:36:18;;;;;;;11.63;8.95;;;;;;;2.84;62.13;99099.63;1813242;79;21159;-58
2021/01/14 11:38:45;;;;;;;14.75;9.25;;;;;;;2.85;62.07;99095.34;1813194;78;21163;-51
2021/01/14 11:41:20;;;;;;;14.83;9.73;;;;;;;2.86;61.96;99093.46;1813298;79;22748;-54
2021/01/14 11:43:48;;;;;;;13.35;9.43;;;;;;;2.90;61.90;99095.95;1813590;79;21119;-53
2021/01/14 11:46:26;;;;;;;13.32;9.20;;;;;;;2.93;61.82;99088.72;1813399;79;21547;-56
2021/01/14 11:48:54;;;;;;;16.20;9.83;;;;;;;2.93;61.76;99091.41;1800338;79;21213;-51
2021/01/14 11:51:22;;;;;;;14.53;8.88;;;;;;;2.96;61.76;99096.30;1786707;79;21133;-54